sensor_id;sensor_type;location;lat;lon;timestamp;P1;durP1;ratioP1;P2;durP2;ratioP2
33279;SDS011;20403;43.114;12.434;2022-07-29T00:00:58;6.53;;;4.50;;
33279;SDS011;20403;43.114;12.434;2022-07-29T00:03:24;7.40;;;4.30;;
33279;SDS011;20403;43.114;12.434;2022-07-29T00:05:49;7.85;;;4.75;;
33279;SDS011;20403;43.114;12.434;2022-07-29T00:08:16;7.50;;;4.53;;
33279;SDS011;20403;43.114;12.434;2022-07-29T00:10:43;7.45;;;4.30;;
33279;SDS011;20403;43.114;12.434;2022-07-29T00:13:08;8.63;;;4.15;;
33279;SDS011;20403;43.114;12.434;2022-07-29T00:15:34;5.75;;;4.40;;
33279;SDS011;20403;43.114;12.434;2022-07-29T00:17:59;9.32;;;4.25;;
33279;SDS011;20403;43.114;12.434;2022-07-29T00:20:24;7.90;;;4.35;;
33279;SDS011;20403;43.114;12.434;2022-07-29T00:22:50;6.55;;;4.22;;
33279;SDS011;20403;43.114;12.434;2022-07-29T00:25:15;10.02;;;4.65;;
33279;SDS011;20403;43.114;12.434;2022-07-29T00:27:41;8.27;;;4.88;;
33279;SDS011;20403;43.114;12.434;2022-07-29T00:30:07;8.55;;;4.60;;
33279;SDS011;20403;43.114;12.434;2022-07-29T00:32:32;5.25;;;4.35;;
33279;SDS011;20403;43.114;12.434;2022-07-29T00:34:58;6.75;;;4.45;;
33279;SDS011;20403;43.114;12.434;2022-07-29T00:37:42;7.05;;;4.25;;
33279;SDS011;20403;43.114;12.434;2022-07-29T00:40:08;18.92;;;4.97;;
33279;SDS011;20403;43.114;12.434;2022-07-29T00:42:47;7.25;;;4.57;;
33279;SDS011;20403;43.114;12.434;2022-07-29T00:45:14;8.13;;;4.65;;
33279;SDS011;20403;43.114;12.434;2022-07-29T00:47:40;5.82;;;4.30;;
33279;SDS011;20403;43.114;12.434;2022-07-29T00:50:06;11.65;;;4.57;;
33279;SDS011;20403;43.114;12.434;2022-07-29T00:52:33;6.90;;;4.63;;
33279;SDS011;20403;43.114;12.434;2022-07-29T00:55:00;7.90;;;5.20;;
33279;SDS011;20403;43.114;12.434;2022-07-29T00:57:27;8.95;;;4.60;;
33279;SDS011;20403;43.114;12.434;2022-07-29T00:59:52;7.57;;;4.43;;
33279;SDS011;20403;43.114;12.434;2022-07-29T01:02:17;5.90;;;4.30;;
33279;SDS011;20403;43.114;12.434;2022-07-29T01:04:43;8.73;;;4.78;;
33279;SDS011;20403;43.114;12.434;2022-07-29T01:07:08;7.50;;;4.20;;
33279;SDS011;20403;43.114;12.434;2022-07-29T01:09:35;6.88;;;4.47;;
33279;SDS011;20403;43.114;12.434;2022-07-29T01:12:02;6.82;;;4.80;;
33279;SDS011;20403;43.114;12.434;2022-07-29T01:14:29;7.72;;;4.80;;
33279;SDS011;20403;43.114;12.434;2022-07-29T01:16:59;8.15;;;4.68;;
33279;SDS011;20403;43.114;12.434;2022-07-29T01:30:55;6.25;;;4.22;;
33279;SDS011;20403;43.114;12.434;2022-07-29T01:33:21;7.88;;;4.53;;
33279;SDS011;20403;43.114;12.434;2022-07-29T01:37:12;9.52;;;4.85;;
33279;SDS011;20403;43.114;12.434;2022-07-29T01:41:54;7.93;;;4.80;;
33279;SDS011;20403;43.114;12.434;2022-07-29T01:44:27;7.25;;;4.75;;
33279;SDS011;20403;43.114;12.434;2022-07-29T01:47:01;7.68;;;4.82;;
33279;SDS011;20403;43.114;12.434;2022-07-29T01:49:35;6.57;;;4.63;;
33279;SDS011;20403;43.114;12.434;2022-07-29T01:52:13;12.05;;;5.20;;
33279;SDS011;20403;43.114;12.434;2022-07-29T01:54:57;7.93;;;4.72;;
33279;SDS011;20403;43.114;12.434;2022-07-29T01:57:28;7.47;;;4.45;;
33279;SDS011;20403;43.114;12.434;2022-07-29T01:59:57;6.72;;;4.30;;
33279;SDS011;20403;43.114;12.434;2022-07-29T02:02:25;13.13;;;4.72;;
33279;SDS011;20403;43.114;12.434;2022-07-29T02:04:52;6.68;;;4.55;;
33279;SDS011;20403;43.114;12.434;2022-07-29T02:07:20;5.53;;;4.30;;
33279;SDS011;20403;43.114;12.434;2022-07-29T02:09:49;6.03;;;4.67;;
33279;SDS011;20403;43.114;12.434;2022-07-29T02:12:16;11.70;;;4.70;;
33279;SDS011;20403;43.114;12.434;2022-07-29T02:14:50;10.32;;;4.50;;
33279;SDS011;20403;43.114;12.434;2022-07-29T02:17:22;7.70;;;4.30;;
33279;SDS011;20403;43.114;12.434;2022-07-29T02:19:51;5.85;;;4.47;;
33279;SDS011;20403;43.114;12.434;2022-07-29T02:22:20;8.98;;;4.30;;
33279;SDS011;20403;43.114;12.434;2022-07-29T02:24:48;8.70;;;4.38;;
33279;SDS011;20403;43.114;12.434;2022-07-29T02:27:16;6.25;;;4.72;;
33279;SDS011;20403;43.114;12.434;2022-07-29T02:29:45;8.15;;;4.75;;
33279;SDS011;20403;43.114;12.434;2022-07-29T02:32:12;10.07;;;4.43;;
33279;SDS011;20403;43.114;12.434;2022-07-29T02:34:40;12.52;;;4.88;;
33279;SDS011;20403;43.114;12.434;2022-07-29T02:37:09;11.27;;;5.03;;
33279;SDS011;20403;43.114;12.434;2022-07-29T02:39:35;7.07;;;4.32;;
33279;SDS011;20403;43.114;12.434;2022-07-29T02:42:03;7.90;;;4.95;;
33279;SDS011;20403;43.114;12.434;2022-07-29T02:44:32;7.67;;;4.90;;
33279;SDS011;20403;43.114;12.434;2022-07-29T02:47:10;6.40;;;4.80;;
33279;SDS011;20403;43.114;12.434;2022-07-29T02:55:19;7.97;;;5.70;;
33279;SDS011;20403;43.114;12.434;2022-07-29T02:58:41;8.93;;;4.82;;
33279;SDS011;20403;43.114;12.434;2022-07-29T03:00:53;11.45;;;5.05;;
33279;SDS011;20403;43.114;12.434;2022-07-29T03:03:20;7.05;;;4.65;;
33279;SDS011;20403;43.114;12.434;2022-07-29T03:05:47;7.80;;;4.97;;
33279;SDS011;20403;43.114;12.434;2022-07-29T03:08:12;7.10;;;4.65;;
33279;SDS011;20403;43.114;12.434;2022-07-29T03:10:42;8.68;;;4.93;;
33279;SDS011;20403;43.114;12.434;2022-07-29T03:13:09;8.18;;;5.00;;
33279;SDS011;20403;43.114;12.434;2022-07-29T03:15:37;6.63;;;4.53;;
33279;SDS011;20403;43.114;12.434;2022-07-29T03:18:03;6.90;;;4.60;;
33279;SDS011;20403;43.114;12.434;2022-07-29T03:20:31;11.55;;;4.65;;
33279;SDS011;20403;43.114;12.434;2022-07-29T03:22:56;6.72;;;4.35;;
33279;SDS011;20403;43.114;12.434;2022-07-29T03:25:22;7.72;;;4.75;;
33279;SDS011;20403;43.114;12.434;2022-07-29T03:27:47;11.70;;;5.35;;
33279;SDS011;20403;43.114;12.434;2022-07-29T03:30:13;7.50;;;5.03;;
33279;SDS011;20403;43.114;12.434;2022-07-29T03:32:41;11.18;;;4.78;;
33279;SDS011;20403;43.114;12.434;2022-07-29T03:35:07;9.75;;;4.80;;
33279;SDS011;20403;43.114;12.434;2022-07-29T03:37:33;7.43;;;4.75;;
33279;SDS011;20403;43.114;12.434;2022-07-29T03:40:01;8.38;;;5.03;;
33279;SDS011;20403;43.114;12.434;2022-07-29T03:42:32;10.73;;;5.35;;
33279;SDS011;20403;43.114;12.434;2022-07-29T03:45:03;10.93;;;5.63;;
33279;SDS011;20403;43.114;12.434;2022-07-29T03:47:32;9.27;;;4.68;;
33279;SDS011;20403;43.114;12.434;2022-07-29T03:50:00;11.07;;;5.18;;
33279;SDS011;20403;43.114;12.434;2022-07-29T03:52:30;9.07;;;4.63;;
33279;SDS011;20403;43.114;12.434;2022-07-29T03:54:56;6.70;;;4.80;;
33279;SDS011;20403;43.114;12.434;2022-07-29T03:57:23;10.93;;;4.50;;
33279;SDS011;20403;43.114;12.434;2022-07-29T03:59:52;9.38;;;5.10;;
33279;SDS011;20403;43.114;12.434;2022-07-29T04:02:18;11.43;;;5.13;;
33279;SDS011;20403;43.114;12.434;2022-07-29T04:04:44;11.15;;;5.15;;
33279;SDS011;20403;43.114;12.434;2022-07-29T04:07:14;11.68;;;5.35;;
33279;SDS011;20403;43.114;12.434;2022-07-29T04:09:40;6.90;;;5.15;;
33279;SDS011;20403;43.114;12.434;2022-07-29T04:12:06;12.10;;;5.55;;
33279;SDS011;20403;43.114;12.434;2022-07-29T04:14:32;19.50;;;7.70;;
33279;SDS011;20403;43.114;12.434;2022-07-29T04:16:58;11.60;;;6.03;;
33279;SDS011;20403;43.114;12.434;2022-07-29T04:19:24;8.60;;;6.15;;
33279;SDS011;20403;43.114;12.434;2022-07-29T04:21:50;13.13;;;5.88;;
33279;SDS011;20403;43.114;12.434;2022-07-29T04:24:16;12.50;;;5.38;;
33279;SDS011;20403;43.114;12.434;2022-07-29T04:26:42;10.00;;;5.88;;
33279;SDS011;20403;43.114;12.434;2022-07-29T04:29:07;15.50;;;6.72;;
33279;SDS011;20403;43.114;12.434;2022-07-29T04:31:33;11.82;;;6.85;;
33279;SDS011;20403;43.114;12.434;2022-07-29T04:33:58;14.60;;;7.50;;
33279;SDS011;20403;43.114;12.434;2022-07-29T04:36:24;20.10;;;8.48;;
33279;SDS011;20403;43.114;12.434;2022-07-29T04:38:49;27.52;;;12.55;;
33279;SDS011;20403;43.114;12.434;2022-07-29T04:41:15;18.77;;;10.82;;
33279;SDS011;20403;43.114;12.434;2022-07-29T04:43:40;27.67;;;13.80;;
33279;SDS011;20403;43.114;12.434;2022-07-29T04:46:06;23.02;;;12.30;;
33279;SDS011;20403;43.114;12.434;2022-07-29T04:48:31;29.15;;;13.45;;
33279;SDS011;20403;43.114;12.434;2022-07-29T04:50:57;28.40;;;12.60;;
33279;SDS011;20403;43.114;12.434;2022-07-29T04:53:23;23.27;;;11.18;;
33279;SDS011;20403;43.114;12.434;2022-07-29T04:55:49;18.13;;;11.02;;
33279;SDS011;20403;43.114;12.434;2022-07-29T04:58:14;18.00;;;10.40;;
33279;SDS011;20403;43.114;12.434;2022-07-29T05:00:40;16.75;;;10.90;;
33279;SDS011;20403;43.114;12.434;2022-07-29T05:03:05;17.98;;;10.15;;
33279;SDS011;20403;43.114;12.434;2022-07-29T05:05:30;12.80;;;9.45;;
33279;SDS011;20403;43.114;12.434;2022-07-29T05:07:56;11.93;;;8.23;;
33279;SDS011;20403;43.114;12.434;2022-07-29T05:10:21;20.92;;;8.82;;
33279;SDS011;20403;43.114;12.434;2022-07-29T05:12:47;17.65;;;9.55;;
33279;SDS011;20403;43.114;12.434;2022-07-29T05:15:13;9.10;;;7.55;;
33279;SDS011;20403;43.114;12.434;2022-07-29T05:17:38;15.48;;;8.38;;
33279;SDS011;20403;43.114;12.434;2022-07-29T05:20:04;14.18;;;7.80;;
33279;SDS011;20403;43.114;12.434;2022-07-29T05:22:30;13.75;;;8.55;;
33279;SDS011;20403;43.114;12.434;2022-07-29T05:24:55;20.75;;;7.80;;
33279;SDS011;20403;43.114;12.434;2022-07-29T05:27:21;12.15;;;6.70;;
33279;SDS011;20403;43.114;12.434;2022-07-29T05:29:46;10.00;;;6.68;;
33279;SDS011;20403;43.114;12.434;2022-07-29T05:32:12;12.85;;;6.68;;
33279;SDS011;20403;43.114;12.434;2022-07-29T05:34:38;19.15;;;7.15;;
33279;SDS011;20403;43.114;12.434;2022-07-29T05:37:03;14.95;;;6.82;;
33279;SDS011;20403;43.114;12.434;2022-07-29T05:39:29;11.32;;;7.00;;
33279;SDS011;20403;43.114;12.434;2022-07-29T05:41:54;10.48;;;7.30;;
33279;SDS011;20403;43.114;12.434;2022-07-29T05:44:20;11.40;;;7.40;;
33279;SDS011;20403;43.114;12.434;2022-07-29T05:46:45;17.33;;;9.18;;
33279;SDS011;20403;43.114;12.434;2022-07-29T05:49:11;14.10;;;8.50;;
33279;SDS011;20403;43.114;12.434;2022-07-29T05:51:36;15.88;;;10.10;;
33279;SDS011;20403;43.114;12.434;2022-07-29T05:54:02;12.85;;;9.63;;
33279;SDS011;20403;43.114;12.434;2022-07-29T05:56:27;16.73;;;10.48;;
33279;SDS011;20403;43.114;12.434;2022-07-29T05:58:53;17.85;;;10.00;;
33279;SDS011;20403;43.114;12.434;2022-07-29T06:01:18;16.90;;;10.88;;
33279;SDS011;20403;43.114;12.434;2022-07-29T06:03:44;13.95;;;9.95;;
33279;SDS011;20403;43.114;12.434;2022-07-29T06:06:10;14.48;;;10.73;;
33279;SDS011;20403;43.114;12.434;2022-07-29T06:08:36;21.40;;;10.70;;
33279;SDS011;20403;43.114;12.434;2022-07-29T06:11:02;14.88;;;9.27;;
33279;SDS011;20403;43.114;12.434;2022-07-29T06:13:28;13.55;;;8.43;;
33279;SDS011;20403;43.114;12.434;2022-07-29T06:15:53;17.35;;;8.85;;
33279;SDS011;20403;43.114;12.434;2022-07-29T06:18:19;14.68;;;8.63;;
33279;SDS011;20403;43.114;12.434;2022-07-29T06:20:46;13.48;;;8.13;;
33279;SDS011;20403;43.114;12.434;2022-07-29T06:23:11;18.85;;;9.35;;
33279;SDS011;20403;43.114;12.434;2022-07-29T06:25:37;11.75;;;8.63;;
33279;SDS011;20403;43.114;12.434;2022-07-29T06:28:04;10.13;;;7.93;;
33279;SDS011;20403;43.114;12.434;2022-07-29T06:30:29;16.15;;;8.20;;
33279;SDS011;20403;43.114;12.434;2022-07-29T06:32:55;11.45;;;7.85;;
33279;SDS011;20403;43.114;12.434;2022-07-29T06:35:20;13.10;;;7.95;;
33279;SDS011;20403;43.114;12.434;2022-07-29T06:37:46;18.98;;;8.73;;
33279;SDS011;20403;43.114;12.434;2022-07-29T06:40:12;12.75;;;8.30;;
33279;SDS011;20403;43.114;12.434;2022-07-29T06:42:56;11.20;;;8.40;;
33279;SDS011;20403;43.114;12.434;2022-07-29T06:45:21;10.65;;;7.90;;
33279;SDS011;20403;43.114;12.434;2022-07-29T06:47:46;12.77;;;8.30;;
33279;SDS011;20403;43.114;12.434;2022-07-29T06:50:13;10.00;;;7.40;;
33279;SDS011;20403;43.114;12.434;2022-07-29T06:52:39;15.75;;;8.48;;
33279;SDS011;20403;43.114;12.434;2022-07-29T06:55:05;12.35;;;8.00;;
33279;SDS011;20403;43.114;12.434;2022-07-29T06:57:30;13.43;;;8.70;;
33279;SDS011;20403;43.114;12.434;2022-07-29T06:59:56;13.32;;;8.05;;
33279;SDS011;20403;43.114;12.434;2022-07-29T07:02:22;15.93;;;7.63;;
33279;SDS011;20403;43.114;12.434;2022-07-29T07:04:47;9.57;;;6.72;;
33279;SDS011;20403;43.114;12.434;2022-07-29T07:07:12;12.73;;;6.90;;
33279;SDS011;20403;43.114;12.434;2022-07-29T07:09:38;15.73;;;6.80;;
33279;SDS011;20403;43.114;12.434;2022-07-29T07:12:03;11.07;;;6.93;;
33279;SDS011;20403;43.114;12.434;2022-07-29T07:14:29;10.82;;;6.43;;
33279;SDS011;20403;43.114;12.434;2022-07-29T07:16:54;12.35;;;6.88;;
33279;SDS011;20403;43.114;12.434;2022-07-29T07:19:20;13.30;;;6.93;;
33279;SDS011;20403;43.114;12.434;2022-07-29T07:21:45;6.88;;;6.10;;
33279;SDS011;20403;43.114;12.434;2022-07-29T07:24:11;12.65;;;6.07;;
33279;SDS011;20403;43.114;12.434;2022-07-29T07:26:36;9.20;;;6.32;;
33279;SDS011;20403;43.114;12.434;2022-07-29T07:29:02;12.98;;;5.78;;
33279;SDS011;20403;43.114;12.434;2022-07-29T07:31:28;13.95;;;6.10;;
33279;SDS011;20403;43.114;12.434;2022-07-29T07:33:53;15.27;;;6.78;;
33279;SDS011;20403;43.114;12.434;2022-07-29T07:36:19;13.45;;;5.97;;
33279;SDS011;20403;43.114;12.434;2022-07-29T07:38:44;10.93;;;6.00;;
33279;SDS011;20403;43.114;12.434;2022-07-29T07:41:10;34.00;;;10.68;;
33279;SDS011;20403;43.114;12.434;2022-07-29T07:43:35;11.00;;;5.95;;
33279;SDS011;20403;43.114;12.434;2022-07-29T07:46:01;9.98;;;5.47;;
33279;SDS011;20403;43.114;12.434;2022-07-29T07:48:26;9.38;;;4.85;;
33279;SDS011;20403;43.114;12.434;2022-07-29T07:50:51;17.77;;;5.88;;
33279;SDS011;20403;43.114;12.434;2022-07-29T07:53:17;12.02;;;6.13;;
33279;SDS011;20403;43.114;12.434;2022-07-29T07:55:42;11.60;;;5.40;;
33279;SDS011;20403;43.114;12.434;2022-07-29T07:58:09;14.75;;;5.15;;
33279;SDS011;20403;43.114;12.434;2022-07-29T08:00:34;10.57;;;4.95;;
33279;SDS011;20403;43.114;12.434;2022-07-29T08:03:00;10.02;;;5.03;;
33279;SDS011;20403;43.114;12.434;2022-07-29T08:05:26;13.60;;;5.65;;
33279;SDS011;20403;43.114;12.434;2022-07-29T08:07:51;8.80;;;4.40;;
33279;SDS011;20403;43.114;12.434;2022-07-29T08:10:17;15.85;;;4.85;;
33279;SDS011;20403;43.114;12.434;2022-07-29T08:13:07;9.23;;;4.65;;
33279;SDS011;20403;43.114;12.434;2022-07-29T08:15:34;12.25;;;5.30;;
33279;SDS011;20403;43.114;12.434;2022-07-29T08:18:00;11.70;;;4.40;;
33279;SDS011;20403;43.114;12.434;2022-07-29T08:20:26;10.68;;;4.70;;
33279;SDS011;20403;43.114;12.434;2022-07-29T08:22:51;13.55;;;4.47;;
33279;SDS011;20403;43.114;12.434;2022-07-29T08:25:18;12.13;;;4.68;;
33279;SDS011;20403;43.114;12.434;2022-07-29T08:27:45;16.00;;;5.05;;
33279;SDS011;20403;43.114;12.434;2022-07-29T08:30:11;7.82;;;4.30;;
33279;SDS011;20403;43.114;12.434;2022-07-29T08:32:37;15.05;;;4.28;;
33279;SDS011;20403;43.114;12.434;2022-07-29T08:35:03;10.23;;;3.80;;
33279;SDS011;20403;43.114;12.434;2022-07-29T08:37:29;9.55;;;3.78;;
33279;SDS011;20403;43.114;12.434;2022-07-29T08:39:54;14.23;;;4.18;;
33279;SDS011;20403;43.114;12.434;2022-07-29T08:42:20;13.20;;;3.75;;
33279;SDS011;20403;43.114;12.434;2022-07-29T08:44:46;8.07;;;4.05;;
33279;SDS011;20403;43.114;12.434;2022-07-29T08:47:14;13.40;;;4.00;;
33279;SDS011;20403;43.114;12.434;2022-07-29T08:49:40;21.23;;;5.05;;
33279;SDS011;20403;43.114;12.434;2022-07-29T08:52:05;12.80;;;4.68;;
33279;SDS011;20403;43.114;12.434;2022-07-29T08:54:31;14.10;;;4.43;;
33279;SDS011;20403;43.114;12.434;2022-07-29T08:56:57;10.45;;;4.07;;
33279;SDS011;20403;43.114;12.434;2022-07-29T08:59:24;44.17;;;11.10;;
33279;SDS011;20403;43.114;12.434;2022-07-29T09:01:52;11.27;;;4.57;;
33279;SDS011;20403;43.114;12.434;2022-07-29T09:04:19;12.40;;;4.70;;
33279;SDS011;20403;43.114;12.434;2022-07-29T09:06:49;13.15;;;4.15;;
33279;SDS011;20403;43.114;12.434;2022-07-29T09:09:16;9.52;;;4.32;;
33279;SDS011;20403;43.114;12.434;2022-07-29T09:11:42;14.18;;;4.43;;
33279;SDS011;20403;43.114;12.434;2022-07-29T09:14:08;15.52;;;4.00;;
33279;SDS011;20403;43.114;12.434;2022-07-29T09:16:44;13.25;;;4.22;;
33279;SDS011;20403;43.114;12.434;2022-07-29T09:21:59;12.70;;;4.32;;
33279;SDS011;20403;43.114;12.434;2022-07-29T09:24:45;13.90;;;3.90;;
33279;SDS011;20403;43.114;12.434;2022-07-29T09:27:24;11.93;;;3.97;;
33279;SDS011;20403;43.114;12.434;2022-07-29T09:30:10;7.90;;;3.45;;
33279;SDS011;20403;43.114;12.434;2022-07-29T09:32:55;11.63;;;4.22;;
33279;SDS011;20403;43.114;12.434;2022-07-29T09:35:25;12.23;;;3.70;;
33279;SDS011;20403;43.114;12.434;2022-07-29T09:37:51;13.55;;;4.47;;
33279;SDS011;20403;43.114;12.434;2022-07-29T09:40:24;12.63;;;4.07;;
33279;SDS011;20403;43.114;12.434;2022-07-29T09:42:51;13.77;;;4.10;;
33279;SDS011;20403;43.114;12.434;2022-07-29T09:45:33;6.93;;;3.58;;
33279;SDS011;20403;43.114;12.434;2022-07-29T09:47:59;11.10;;;3.50;;
33279;SDS011;20403;43.114;12.434;2022-07-29T09:50:38;9.02;;;3.53;;
33279;SDS011;20403;43.114;12.434;2022-07-29T09:53:05;18.13;;;4.07;;
33279;SDS011;20403;43.114;12.434;2022-07-29T09:55:30;9.10;;;3.70;;
33279;SDS011;20403;43.114;12.434;2022-07-29T09:58:15;13.10;;;3.60;;
33279;SDS011;20403;43.114;12.434;2022-07-29T10:00:45;7.10;;;3.72;;
33279;SDS011;20403;43.114;12.434;2022-07-29T10:03:11;9.70;;;3.20;;
33279;SDS011;20403;43.114;12.434;2022-07-29T10:05:37;8.38;;;3.83;;
33279;SDS011;20403;43.114;12.434;2022-07-29T10:08:04;16.20;;;3.67;;
33279;SDS011;20403;43.114;12.434;2022-07-29T10:13:03;8.75;;;3.20;;
33279;SDS011;20403;43.114;12.434;2022-07-29T10:15:30;11.50;;;3.97;;
33279;SDS011;20403;43.114;12.434;2022-07-29T10:17:57;7.75;;;3.60;;
33279;SDS011;20403;43.114;12.434;2022-07-29T10:20:24;10.48;;;3.40;;
33279;SDS011;20403;43.114;12.434;2022-07-29T10:22:51;11.73;;;3.65;;
33279;SDS011;20403;43.114;12.434;2022-07-29T10:25:17;9.48;;;3.33;;
33279;SDS011;20403;43.114;12.434;2022-07-29T10:27:45;7.00;;;2.78;;
33279;SDS011;20403;43.114;12.434;2022-07-29T10:30:12;7.90;;;3.15;;
33279;SDS011;20403;43.114;12.434;2022-07-29T10:38:07;8.43;;;3.35;;
33279;SDS011;20403;43.114;12.434;2022-07-29T10:40:57;13.23;;;4.20;;
33279;SDS011;20403;43.114;12.434;2022-07-29T10:44:01;9.40;;;3.10;;
33279;SDS011;20403;43.114;12.434;2022-07-29T10:46:35;8.45;;;3.70;;
33279;SDS011;20403;43.114;12.434;2022-07-29T10:49:09;5.78;;;2.95;;
33279;SDS011;20403;43.114;12.434;2022-07-29T10:56:42;12.70;;;3.38;;
33279;SDS011;20403;43.114;12.434;2022-07-29T11:01:48;6.53;;;3.10;;
33279;SDS011;20403;43.114;12.434;2022-07-29T11:09:29;8.48;;;3.17;;
33279;SDS011;20403;43.114;12.434;2022-07-29T11:11:55;7.45;;;3.08;;
33279;SDS011;20403;43.114;12.434;2022-07-29T11:17:26;10.00;;;3.38;;
33279;SDS011;20403;43.114;12.434;2022-07-29T11:20:05;7.80;;;3.00;;
33279;SDS011;20403;43.114;12.434;2022-07-29T11:22:55;5.40;;;2.70;;
33279;SDS011;20403;43.114;12.434;2022-07-29T11:25:21;8.55;;;3.55;;
33279;SDS011;20403;43.114;12.434;2022-07-29T11:27:46;7.30;;;2.92;;
33279;SDS011;20403;43.114;12.434;2022-07-29T11:30:12;5.50;;;3.10;;
33279;SDS011;20403;43.114;12.434;2022-07-29T11:32:39;12.10;;;2.97;;
33279;SDS011;20403;43.114;12.434;2022-07-29T11:37:40;8.93;;;3.00;;
33279;SDS011;20403;43.114;12.434;2022-07-29T11:47:46;7.45;;;2.80;;
33279;SDS011;20403;43.114;12.434;2022-07-29T11:50:13;12.25;;;3.00;;
33279;SDS011;20403;43.114;12.434;2022-07-29T11:52:46;5.30;;;2.90;;
33279;SDS011;20403;43.114;12.434;2022-07-29T11:55:14;6.53;;;3.40;;
33279;SDS011;20403;43.114;12.434;2022-07-29T11:57:48;8.07;;;2.88;;
33279;SDS011;20403;43.114;12.434;2022-07-29T12:00:22;4.88;;;2.40;;
33279;SDS011;20403;43.114;12.434;2022-07-29T12:02:49;6.53;;;2.70;;
33279;SDS011;20403;43.114;12.434;2022-07-29T12:05:15;9.55;;;2.58;;
33279;SDS011;20403;43.114;12.434;2022-07-29T12:07:41;13.05;;;2.78;;
33279;SDS011;20403;43.114;12.434;2022-07-29T12:10:07;5.57;;;2.58;;
33279;SDS011;20403;43.114;12.434;2022-07-29T12:12:34;7.80;;;2.75;;
33279;SDS011;20403;43.114;12.434;2022-07-29T12:17:38;7.28;;;2.60;;
33279;SDS011;20403;43.114;12.434;2022-07-29T12:20:04;7.88;;;2.50;;
33279;SDS011;20403;43.114;12.434;2022-07-29T12:22:31;6.25;;;2.40;;
33279;SDS011;20403;43.114;12.434;2022-07-29T12:25:12;7.45;;;2.75;;
33279;SDS011;20403;43.114;12.434;2022-07-29T12:27:43;6.45;;;2.53;;
33279;SDS011;20403;43.114;12.434;2022-07-29T12:30:10;4.97;;;2.75;;
33279;SDS011;20403;43.114;12.434;2022-07-29T12:32:44;9.70;;;2.53;;
33279;SDS011;20403;43.114;12.434;2022-07-29T12:35:12;3.65;;;2.10;;
33279;SDS011;20403;43.114;12.434;2022-07-29T12:37:40;7.50;;;2.47;;
33279;SDS011;20403;43.114;12.434;2022-07-29T12:40:08;6.85;;;2.60;;
33279;SDS011;20403;43.114;12.434;2022-07-29T12:42:36;10.98;;;2.55;;
33279;SDS011;20403;43.114;12.434;2022-07-29T12:45:02;11.75;;;2.58;;
33279;SDS011;20403;43.114;12.434;2022-07-29T12:47:28;4.82;;;2.22;;
33279;SDS011;20403;43.114;12.434;2022-07-29T12:50:07;7.40;;;2.75;;
33279;SDS011;20403;43.114;12.434;2022-07-29T12:52:39;4.90;;;2.28;;
33279;SDS011;20403;43.114;12.434;2022-07-29T12:55:04;5.18;;;2.30;;
33279;SDS011;20403;43.114;12.434;2022-07-29T12:57:30;9.82;;;2.72;;
33279;SDS011;20403;43.114;12.434;2022-07-29T13:00:04;6.50;;;2.00;;
33279;SDS011;20403;43.114;12.434;2022-07-29T13:02:33;5.90;;;2.47;;
33279;SDS011;20403;43.114;12.434;2022-07-29T13:04:59;5.40;;;2.55;;
33279;SDS011;20403;43.114;12.434;2022-07-29T13:07:26;6.68;;;2.50;;
33279;SDS011;20403;43.114;12.434;2022-07-29T13:09:54;8.45;;;2.80;;
33279;SDS011;20403;43.114;12.434;2022-07-29T13:12:35;9.43;;;2.35;;
33279;SDS011;20403;43.114;12.434;2022-07-29T13:15:11;5.85;;;2.78;;
33279;SDS011;20403;43.114;12.434;2022-07-29T13:17:41;8.02;;;2.83;;
33279;SDS011;20403;43.114;12.434;2022-07-29T13:20:09;8.23;;;2.92;;
33279;SDS011;20403;43.114;12.434;2022-07-29T13:22:40;5.45;;;2.45;;
33279;SDS011;20403;43.114;12.434;2022-07-29T13:25:07;9.90;;;2.67;;
33279;SDS011;20403;43.114;12.434;2022-07-29T13:27:34;8.32;;;3.05;;
33279;SDS011;20403;43.114;12.434;2022-07-29T13:30:05;3.72;;;2.25;;
33279;SDS011;20403;43.114;12.434;2022-07-29T13:32:32;8.23;;;2.58;;
33279;SDS011;20403;43.114;12.434;2022-07-29T13:35:05;6.15;;;2.30;;
33279;SDS011;20403;43.114;12.434;2022-07-29T13:37:32;11.73;;;2.15;;
33279;SDS011;20403;43.114;12.434;2022-07-29T13:39:59;11.23;;;2.92;;
33279;SDS011;20403;43.114;12.434;2022-07-29T13:42:27;8.25;;;2.80;;
33279;SDS011;20403;43.114;12.434;2022-07-29T13:44:53;4.57;;;2.20;;
33279;SDS011;20403;43.114;12.434;2022-07-29T13:47:19;3.92;;;1.98;;
33279;SDS011;20403;43.114;12.434;2022-07-29T13:49:45;7.40;;;2.28;;
33279;SDS011;20403;43.114;12.434;2022-07-29T13:52:10;3.13;;;1.90;;
33279;SDS011;20403;43.114;12.434;2022-07-29T13:54:35;11.27;;;2.75;;
33279;SDS011;20403;43.114;12.434;2022-07-29T13:57:04;7.82;;;2.40;;
33279;SDS011;20403;43.114;12.434;2022-07-29T13:59:30;6.88;;;2.70;;
33279;SDS011;20403;43.114;12.434;2022-07-29T14:01:56;6.28;;;2.53;;
33279;SDS011;20403;43.114;12.434;2022-07-29T14:04:21;6.53;;;2.30;;
33279;SDS011;20403;43.114;12.434;2022-07-29T14:06:48;10.02;;;2.70;;
33279;SDS011;20403;43.114;12.434;2022-07-29T14:09:14;5.03;;;2.30;;
33279;SDS011;20403;43.114;12.434;2022-07-29T14:11:39;4.57;;;2.38;;
33279;SDS011;20403;43.114;12.434;2022-07-29T14:14:05;6.70;;;2.40;;
33279;SDS011;20403;43.114;12.434;2022-07-29T14:16:30;6.07;;;2.60;;
33279;SDS011;20403;43.114;12.434;2022-07-29T14:18:56;6.90;;;2.33;;
33279;SDS011;20403;43.114;12.434;2022-07-29T14:21:21;6.45;;;2.50;;
33279;SDS011;20403;43.114;12.434;2022-07-29T14:23:47;10.32;;;2.67;;
33279;SDS011;20403;43.114;12.434;2022-07-29T14:26:12;9.48;;;3.13;;
33279;SDS011;20403;43.114;12.434;2022-07-29T14:28:38;8.20;;;2.63;;
33279;SDS011;20403;43.114;12.434;2022-07-29T14:31:04;9.85;;;2.60;;
33279;SDS011;20403;43.114;12.434;2022-07-29T14:33:29;8.57;;;2.65;;
33279;SDS011;20403;43.114;12.434;2022-07-29T14:35:55;7.60;;;2.80;;
33279;SDS011;20403;43.114;12.434;2022-07-29T14:38:20;6.88;;;2.78;;
33279;SDS011;20403;43.114;12.434;2022-07-29T14:40:45;7.97;;;2.40;;
33279;SDS011;20403;43.114;12.434;2022-07-29T14:43:12;6.43;;;2.50;;
33279;SDS011;20403;43.114;12.434;2022-07-29T14:45:38;12.77;;;2.53;;
33279;SDS011;20403;43.114;12.434;2022-07-29T14:48:04;6.63;;;2.42;;
33279;SDS011;20403;43.114;12.434;2022-07-29T14:50:29;8.75;;;2.40;;
33279;SDS011;20403;43.114;12.434;2022-07-29T14:52:55;10.13;;;2.38;;
33279;SDS011;20403;43.114;12.434;2022-07-29T14:55:20;8.35;;;2.75;;
33279;SDS011;20403;43.114;12.434;2022-07-29T14:57:46;11.13;;;2.15;;
33279;SDS011;20403;43.114;12.434;2022-07-29T15:00:13;9.43;;;2.50;;
33279;SDS011;20403;43.114;12.434;2022-07-29T15:02:39;8.52;;;2.40;;
33279;SDS011;20403;43.114;12.434;2022-07-29T15:05:04;7.72;;;2.50;;
33279;SDS011;20403;43.114;12.434;2022-07-29T15:07:30;7.20;;;2.67;;
33279;SDS011;20403;43.114;12.434;2022-07-29T15:09:56;8.90;;;2.95;;
33279;SDS011;20403;43.114;12.434;2022-07-29T15:12:21;9.52;;;2.80;;
33279;SDS011;20403;43.114;12.434;2022-07-29T15:14:46;4.93;;;2.50;;
33279;SDS011;20403;43.114;12.434;2022-07-29T15:17:12;9.00;;;2.20;;
33279;SDS011;20403;43.114;12.434;2022-07-29T15:19:37;6.57;;;2.03;;
33279;SDS011;20403;43.114;12.434;2022-07-29T15:22:03;8.07;;;2.40;;
33279;SDS011;20403;43.114;12.434;2022-07-29T15:24:30;8.98;;;2.45;;
33279;SDS011;20403;43.114;12.434;2022-07-29T15:26:55;10.27;;;2.75;;
33279;SDS011;20403;43.114;12.434;2022-07-29T15:29:21;6.25;;;2.47;;
33279;SDS011;20403;43.114;12.434;2022-07-29T15:31:47;8.80;;;2.60;;